createdAt,value
2023-05-10T00:00:08.698Z,15.60
2023-05-10T00:01:11.089Z,14.90
2023-05-10T00:02:08.609Z,14.60
2023-05-10T00:03:08.577Z,14.70
2023-05-10T00:04:08.437Z,15.40
2023-05-10T00:05:08.356Z,15.40
2023-05-10T00:06:08.382Z,15.00
2023-05-10T00:07:08.251Z,16.50
2023-05-10T00:08:08.279Z,16.00
2023-05-10T00:09:08.111Z,16.60
2023-05-10T00:10:08.081Z,17.10
2023-05-10T00:11:08.013Z,16.70
2023-05-10T00:12:07.922Z,17.80
2023-05-10T00:13:08.293Z,17.60
2023-05-10T00:14:08.375Z,19.10
2023-05-10T00:15:07.720Z,17.20
2023-05-10T00:16:07.695Z,17.30
2023-05-10T00:17:07.572Z,18.80
2023-05-10T00:18:07.586Z,19.30
2023-05-10T00:19:07.557Z,18.80
2023-05-10T00:20:07.482Z,19.40
2023-05-10T00:21:07.402Z,18.80
2023-05-10T00:22:07.280Z,19.00
2023-05-10T00:23:07.253Z,20.50
2023-05-10T00:24:07.228Z,21.00
2023-05-10T00:25:07.209Z,20.70
2023-05-10T00:26:07.015Z,21.50
2023-05-10T00:27:08.634Z,23.00
2023-05-10T00:28:06.880Z,21.40
2023-05-10T00:29:06.912Z,23.30
2023-05-10T00:30:06.811Z,23.00
2023-05-10T00:31:06.728Z,24.80
2023-05-10T00:32:06.734Z,24.10
2023-05-10T00:33:07.510Z,22.60
2023-05-10T00:34:06.752Z,24.20
2023-05-10T00:35:06.450Z,24.70
2023-05-10T00:36:06.406Z,27.00
2023-05-10T00:37:06.360Z,25.50
2023-05-10T00:38:06.308Z,24.50
2023-05-10T00:39:06.282Z,23.80
2023-05-10T00:40:06.243Z,24.30
2023-05-10T00:41:06.123Z,24.70
2023-05-10T00:42:06.070Z,26.10
2023-05-10T00:43:05.977Z,25.30
2023-05-10T00:44:05.922Z,27.10
2023-05-10T00:45:05.854Z,26.40
2023-05-10T00:46:05.952Z,26.00
2023-05-10T00:47:06.406Z,28.40
2023-05-10T00:48:06.470Z,28.60
2023-05-10T00:49:05.694Z,26.10
2023-05-10T00:50:05.590Z,26.80
2023-05-10T00:51:05.495Z,27.70
2023-05-10T00:52:05.456Z,28.30
2023-05-10T00:53:05.412Z,29.80
2023-05-10T00:54:05.325Z,30.60
2023-05-10T00:55:05.453Z,28.60
2023-05-10T00:56:05.235Z,29.60
2023-05-10T00:57:05.171Z,30.10
2023-05-10T00:58:05.194Z,26.90
2023-05-10T00:59:05.017Z,29.80
2023-05-10T01:00:04.996Z,31.50
2023-05-10T01:01:04.886Z,32.50
2023-05-10T01:02:04.911Z,32.00
2023-05-10T01:03:04.926Z,32.30
2023-05-10T01:04:04.710Z,32.10
2023-05-10T01:05:04.817Z,32.10
2023-05-10T01:06:04.508Z,32.60
2023-05-10T01:07:04.527Z,34.40
2023-05-10T01:08:04.458Z,34.30
2023-05-10T01:09:04.390Z,34.10
2023-05-10T01:10:04.361Z,35.50
2023-05-10T01:11:04.337Z,40.70
2023-05-10T01:12:04.312Z,34.30
2023-05-10T01:13:04.290Z,36.80
2023-05-10T01:14:04.095Z,38.30
2023-05-10T01:15:04.079Z,35.90
2023-05-10T01:16:04.099Z,30.90
2023-05-10T01:17:03.954Z,32.70
2023-05-10T01:18:03.822Z,29.50
2023-05-10T01:19:03.778Z,29.40
2023-05-10T01:20:03.774Z,30.10
2023-05-10T01:21:03.656Z,29.80
2023-05-10T01:22:03.567Z,27.50
2023-05-10T01:23:03.546Z,27.40
2023-05-10T01:24:03.462Z,30.00
2023-05-10T01:25:03.415Z,28.20
2023-05-10T01:26:03.514Z,27.40
2023-05-10T01:27:03.308Z,26.80
2023-05-10T01:28:03.242Z,24.80
2023-05-10T01:29:03.223Z,23.80
2023-05-10T01:30:21.855Z,24.00
2023-05-10T01:31:03.084Z,23.30
2023-05-10T01:32:03.028Z,24.90
2023-05-10T01:33:03.963Z,23.60
2023-05-10T01:34:02.904Z,23.60
2023-05-10T01:35:02.821Z,23.60
2023-05-10T01:36:02.718Z,18.40
2023-05-10T01:37:02.720Z,19.10
2023-05-10T01:38:02.613Z,18.60
2023-05-10T01:39:02.656Z,18.40
2023-05-10T01:40:02.536Z,18.50
2023-05-10T01:41:02.431Z,17.70
2023-05-10T01:42:02.373Z,17.40
2023-05-10T01:43:02.279Z,16.40
2023-05-10T01:44:02.261Z,17.20
2023-05-10T01:45:02.918Z,14.90
2023-05-10T01:46:02.165Z,15.10
2023-05-10T01:47:02.111Z,13.90
2023-05-10T01:48:01.964Z,13.70
2023-05-10T01:49:01.998Z,12.70
2023-05-10T01:50:01.825Z,13.50
2023-05-10T01:51:01.811Z,13.10
2023-05-10T01:52:01.728Z,13.20
2023-05-10T01:53:01.689Z,13.30
2023-05-10T01:54:03.974Z,13.20
2023-05-10T01:55:01.638Z,13.00
2023-05-10T01:56:01.474Z,12.60
2023-05-10T01:57:01.399Z,12.10
2023-05-10T01:58:01.381Z,12.70
2023-05-10T01:59:01.257Z,12.00
2023-05-10T02:00:01.248Z,11.70
2023-05-10T02:01:01.210Z,12.00
2023-05-10T02:02:01.116Z,10.80
2023-05-10T02:03:01.097Z,10.80
2023-05-10T02:04:01.021Z,9.30
2023-05-10T02:05:00.876Z,10.60
2023-05-10T02:06:00.856Z,10.30
2023-05-10T02:07:00.777Z,10.90
2023-05-10T02:08:00.730Z,10.60
2023-05-10T02:09:00.697Z,11.10
2023-05-10T02:10:02.124Z,11.10
2023-05-10T02:11:00.537Z,11.50
2023-05-10T02:12:00.454Z,10.60
2023-05-10T02:13:00.444Z,10.10
2023-05-10T02:14:00.335Z,10.60
2023-05-10T02:15:00.295Z,10.80
2023-05-10T02:16:00.227Z,11.30
2023-05-10T02:17:00.331Z,10.50
2023-05-10T02:18:00.206Z,10.30
2023-05-10T02:19:00.090Z,10.90
2023-05-10T02:19:59.950Z,10.40
2023-05-10T02:20:59.845Z,9.30
2023-05-10T02:21:59.772Z,10.10
2023-05-10T02:22:59.799Z,12.30
2023-05-10T02:24:01.138Z,10.50
2023-05-10T02:24:59.693Z,10.40
2023-05-10T02:25:59.612Z,10.80
2023-05-10T02:26:59.521Z,11.30
2023-05-10T02:27:59.538Z,10.70
2023-05-10T02:28:59.445Z,14.20
2023-05-10T02:29:59.392Z,12.20
2023-05-10T02:30:59.276Z,11.10
2023-05-10T02:31:59.270Z,15.30
2023-05-10T02:32:59.216Z,11.90
2023-05-10T02:33:59.146Z,12.50
2023-05-10T02:34:58.985Z,30.20
2023-05-10T02:35:58.954Z,14.30
2023-05-10T02:36:58.953Z,13.80
2023-05-10T02:37:58.824Z,28.50
2023-05-10T02:38:58.823Z,18.30
2023-05-10T02:39:58.729Z,24.10
2023-05-10T02:40:58.763Z,14.70
2023-05-10T02:41:58.635Z,15.20
2023-05-10T02:42:58.555Z,15.00
2023-05-10T02:43:58.534Z,28.80
2023-05-10T02:44:58.500Z,41.30
2023-05-10T02:45:58.401Z,30.00
2023-05-10T02:46:58.278Z,36.20
2023-05-10T02:47:58.229Z,27.30
2023-05-10T02:48:58.142Z,25.10
2023-05-10T02:49:58.146Z,40.60
2023-05-10T02:50:58.113Z,31.80
2023-05-10T02:51:57.953Z,57.10
2023-05-10T02:52:57.960Z,29.20
2023-05-10T02:53:57.893Z,25.60
2023-05-10T02:54:57.826Z,25.90
2023-05-10T02:55:57.807Z,35.90
2023-05-10T02:56:57.665Z,48.00
2023-05-10T02:57:57.609Z,45.70
2023-05-10T02:58:57.550Z,48.20
2023-05-10T02:59:57.553Z,30.30
2023-05-10T03:00:57.420Z,36.20
2023-05-10T03:01:57.388Z,37.50
2023-05-10T03:02:57.306Z,44.00
2023-05-10T03:03:57.160Z,50.70
2023-05-10T03:04:57.181Z,42.10
2023-05-10T03:05:57.081Z,57.00
2023-05-10T03:06:57.057Z,49.70
2023-05-10T03:07:57.014Z,53.00
2023-05-10T03:08:56.938Z,56.80
2023-05-10T03:09:56.842Z,63.60
2023-05-10T03:10:56.854Z,58.50
2023-05-10T03:11:56.710Z,53.20
2023-05-10T03:12:56.642Z,59.80
2023-05-10T03:13:56.656Z,69.00
2023-05-10T03:14:56.562Z,81.90
2023-05-10T03:15:56.551Z,66.60
2023-05-10T03:16:56.417Z,73.80
2023-05-10T03:17:56.435Z,59.40
2023-05-10T03:18:56.334Z,63.20
2023-05-10T03:19:56.153Z,66.40
2023-05-10T03:20:56.897Z,61.80
2023-05-10T03:21:56.074Z,66.30
2023-05-10T03:22:55.967Z,50.40
2023-05-10T03:23:55.968Z,57.40
2023-05-10T03:24:55.855Z,47.80
2023-05-10T03:25:55.811Z,44.10
2023-05-10T03:26:55.727Z,52.90
2023-05-10T03:27:55.723Z,37.20
2023-05-10T03:28:55.684Z,22.50
2023-05-10T03:29:55.584Z,22.40
2023-05-10T03:30:55.536Z,29.60
2023-05-10T03:31:55.801Z,16.70
2023-05-10T03:32:55.422Z,16.90
2023-05-10T03:33:55.334Z,17.40
2023-05-10T03:34:55.242Z,15.90
2023-05-10T03:35:55.189Z,16.40
2023-05-10T03:36:55.179Z,16.30
2023-05-10T03:37:55.043Z,17.20
2023-05-10T03:38:55.081Z,17.60
2023-05-10T03:39:55.630Z,18.20
2023-05-10T03:40:54.882Z,18.70
2023-05-10T03:41:54.836Z,20.40
2023-05-10T03:42:54.768Z,16.90
2023-05-10T03:43:54.679Z,14.80
2023-05-10T03:44:54.659Z,28.20
2023-05-10T03:45:54.585Z,18.00
2023-05-10T03:46:55.165Z,16.80
2023-05-10T03:47:54.439Z,15.40
2023-05-10T03:48:54.396Z,16.20
2023-05-10T03:49:54.319Z,13.80
2023-05-10T03:50:54.277Z,14.80
2023-05-10T03:51:54.160Z,16.40
2023-05-10T03:52:54.842Z,12.30
2023-05-10T03:53:54.069Z,11.90
2023-05-10T03:54:54.019Z,10.70
2023-05-10T03:55:54.928Z,11.00
2023-05-10T03:56:53.845Z,11.90
2023-05-10T03:57:53.832Z,11.90
2023-05-10T03:58:53.737Z,12.80
2023-05-10T03:59:53.660Z,10.50
2023-05-10T04:00:53.649Z,10.50
2023-05-10T04:01:53.632Z,11.30
2023-05-10T04:02:53.557Z,9.90
2023-05-10T04:03:53.567Z,11.10
2023-05-10T04:04:53.396Z,10.80
2023-05-10T04:05:53.328Z,10.80
2023-05-10T04:06:53.274Z,11.20
2023-05-10T04:07:53.235Z,19.60
2023-05-10T04:08:53.102Z,11.10
2023-05-10T04:09:53.098Z,13.80
2023-05-10T04:10:53.044Z,10.50
2023-05-10T04:11:52.993Z,10.40
2023-05-10T04:12:52.908Z,10.00
2023-05-10T04:13:52.831Z,9.60
2023-05-10T04:14:52.779Z,10.20
2023-05-10T04:15:52.707Z,10.90
2023-05-10T04:16:52.678Z,10.10
2023-05-10T04:17:52.755Z,8.50
2023-05-10T04:18:52.531Z,8.50
2023-05-10T04:19:52.433Z,9.80
2023-05-10T04:20:52.370Z,9.20
2023-05-10T04:21:52.309Z,10.00
2023-05-10T04:22:52.218Z,8.80
2023-05-10T04:23:52.242Z,9.70
2023-05-10T04:24:52.089Z,9.60
2023-05-10T04:25:52.056Z,9.50
2023-05-10T04:26:51.969Z,9.20
2023-05-10T04:27:51.960Z,9.00
2023-05-10T04:28:51.989Z,8.50
2023-05-10T04:29:51.867Z,11.10
2023-05-10T04:30:51.731Z,8.50
2023-05-10T04:31:51.729Z,8.90
2023-05-10T04:32:51.667Z,12.00
2023-05-10T04:33:51.552Z,9.00
2023-05-10T04:34:51.493Z,9.10
2023-05-10T04:35:51.402Z,8.00
2023-05-10T04:36:51.339Z,8.30
2023-05-10T04:37:51.494Z,8.70
2023-05-10T04:38:51.252Z,8.10
2023-05-10T04:39:51.156Z,8.10
2023-05-10T04:40:51.155Z,8.30
2023-05-10T04:41:51.093Z,8.60
2023-05-10T04:42:50.963Z,9.00
2023-05-10T04:43:51.002Z,9.20
2023-05-10T04:44:50.888Z,8.60
2023-05-10T04:45:50.851Z,8.20
2023-05-10T04:46:50.760Z,8.40
2023-05-10T04:47:50.699Z,8.40
2023-05-10T04:48:50.612Z,8.40
2023-05-10T04:49:50.572Z,8.30
2023-05-10T04:50:50.490Z,8.10
2023-05-10T04:51:50.499Z,9.40
2023-05-10T04:52:50.464Z,10.40
2023-05-10T04:54:01.537Z,10.30
2023-05-10T04:54:50.246Z,10.80
2023-05-10T04:55:50.159Z,10.40
2023-05-10T04:56:50.227Z,11.50
2023-05-10T04:57:50.121Z,11.30
2023-05-10T04:58:49.988Z,11.60
2023-05-10T04:59:50.491Z,11.40
2023-05-10T05:00:49.842Z,11.60
2023-05-10T05:01:49.871Z,10.80
2023-05-10T05:02:49.856Z,11.40
2023-05-10T05:03:49.766Z,12.30
2023-05-10T05:04:49.644Z,12.10
2023-05-10T05:05:49.548Z,12.60
2023-05-10T05:06:51.107Z,12.10
2023-05-10T05:07:49.520Z,12.60
2023-05-10T05:08:49.379Z,11.50
2023-05-10T05:09:49.300Z,11.60
2023-05-10T05:10:49.336Z,12.10
2023-05-10T05:11:49.170Z,11.10
2023-05-10T05:12:49.141Z,11.90
2023-05-10T05:13:49.899Z,11.80
2023-05-10T05:14:48.994Z,10.30
2023-05-10T05:15:48.951Z,11.60
2023-05-10T05:16:48.859Z,12.80
2023-05-10T05:17:48.831Z,12.00
2023-05-10T05:18:48.801Z,11.70
2023-05-10T05:19:48.708Z,11.80
2023-05-10T05:20:48.659Z,10.70
2023-05-10T05:21:48.555Z,11.40
2023-05-10T05:22:48.509Z,11.60
2023-05-10T05:23:48.436Z,10.80
2023-05-10T05:24:48.337Z,10.40
2023-05-10T05:25:48.380Z,12.30
2023-05-10T05:26:48.218Z,11.20
2023-05-10T05:27:48.159Z,11.60
2023-05-10T05:28:48.089Z,11.60
2023-05-10T05:29:48.054Z,10.20
2023-05-10T05:30:48.621Z,11.30
2023-05-10T05:31:47.968Z,10.90
2023-05-10T05:32:48.025Z,9.80
2023-05-10T05:33:47.789Z,9.70
2023-05-10T05:34:47.781Z,10.80
2023-05-10T05:35:47.696Z,9.50
2023-05-10T05:36:47.723Z,9.40
2023-05-10T05:37:47.571Z,9.90
2023-05-10T05:38:47.514Z,9.10
2023-05-10T05:39:47.422Z,8.80
2023-05-10T05:40:47.341Z,10.30
2023-05-10T05:41:47.298Z,9.10
2023-05-10T05:42:47.279Z,8.60
2023-05-10T05:43:47.245Z,8.40
2023-05-10T05:44:47.167Z,7.60
2023-05-10T05:45:47.168Z,6.30
2023-05-10T05:46:46.992Z,6.60
2023-05-10T05:47:46.963Z,6.90
2023-05-10T05:48:46.861Z,6.70
2023-05-10T05:49:46.917Z,7.10
2023-05-10T05:50:46.798Z,8.40
2023-05-10T05:51:47.750Z,6.80
2023-05-10T05:52:47.627Z,7.20
2023-05-10T05:53:46.685Z,7.40
2023-05-10T05:54:46.462Z,12.90
2023-05-10T05:55:46.465Z,6.70
2023-05-10T05:56:46.467Z,5.70
2023-05-10T05:57:46.308Z,7.20
2023-05-10T05:58:46.267Z,6.30
2023-05-10T05:59:46.206Z,6.60
2023-05-10T06:00:46.615Z,6.70
2023-05-10T06:01:46.143Z,7.10
2023-05-10T06:02:46.183Z,6.60
2023-05-10T06:03:46.067Z,7.20
2023-05-10T06:04:45.862Z,7.90
2023-05-10T06:05:45.916Z,9.20
2023-05-10T06:06:45.770Z,8.20
2023-05-10T06:07:45.678Z,9.50
2023-05-10T06:08:45.680Z,8.60
2023-05-10T06:09:45.539Z,8.80
2023-05-10T06:10:46.118Z,9.30
2023-05-10T06:11:45.497Z,9.00
2023-05-10T06:12:45.409Z,7.90
2023-05-10T06:13:45.298Z,7.50
2023-05-10T06:14:45.233Z,7.80
2023-05-10T06:15:45.201Z,7.40
2023-05-10T06:16:45.100Z,7.60
2023-05-10T06:17:45.088Z,7.40
2023-05-10T06:18:45.037Z,7.50
2023-05-10T06:19:44.958Z,7.50
2023-05-10T06:20:45.025Z,7.40
2023-05-10T06:21:44.867Z,8.50
2023-05-10T06:22:44.798Z,9.90
2023-05-10T06:23:44.702Z,8.30
2023-05-10T06:24:45.409Z,6.40
2023-05-10T06:25:44.612Z,6.60
2023-05-10T06:26:44.538Z,10.70
2023-05-10T06:27:48.126Z,6.80
2023-05-10T06:28:44.475Z,7.00
2023-05-10T06:29:44.309Z,7.00
2023-05-10T06:30:44.264Z,7.00
2023-05-10T06:31:45.639Z,6.50
2023-05-10T06:32:44.191Z,6.70
2023-05-10T06:33:44.393Z,7.20
2023-05-10T06:34:44.614Z,7.30
2023-05-10T06:35:43.925Z,6.70
2023-05-10T06:36:44.781Z,6.80
2023-05-10T06:37:43.908Z,6.30
2023-05-10T06:38:43.735Z,6.70
2023-05-10T06:39:43.719Z,7.40
2023-05-10T06:40:43.605Z,6.30
2023-05-10T06:41:43.529Z,6.90
2023-05-10T06:42:43.462Z,6.90
2023-05-10T06:43:43.478Z,7.40
2023-05-10T06:44:43.391Z,7.10
2023-05-10T06:45:43.377Z,6.20
2023-05-10T06:46:43.344Z,7.00
2023-05-10T06:47:43.225Z,9.30
2023-05-10T06:48:43.166Z,7.30
2023-05-10T06:49:43.072Z,6.90
2023-05-10T06:50:42.988Z,7.40
2023-05-10T06:51:42.920Z,6.90
2023-05-10T06:52:44.138Z,6.90
2023-05-10T06:53:42.791Z,7.30
2023-05-10T06:54:42.950Z,7.70
2023-05-10T06:55:42.679Z,7.30
2023-05-10T06:56:42.619Z,9.30
2023-05-10T06:57:42.646Z,7.70
2023-05-10T06:58:42.588Z,8.20
2023-05-10T06:59:42.457Z,7.90
2023-05-10T07:00:42.388Z,7.90
2023-05-10T07:01:42.315Z,8.10
2023-05-10T07:02:42.302Z,8.00
2023-05-10T07:03:42.233Z,8.90
2023-05-10T07:04:42.187Z,9.80
2023-05-10T07:05:42.083Z,8.50
2023-05-10T07:06:42.042Z,7.50
2023-05-10T07:07:41.957Z,7.00
2023-05-10T07:08:41.871Z,7.20
2023-05-10T07:09:41.774Z,7.10
2023-05-10T07:10:41.739Z,6.60
2023-05-10T07:11:41.700Z,6.10
2023-05-10T07:12:41.647Z,5.60
2023-05-10T07:13:41.701Z,5.80
2023-05-10T07:14:41.485Z,6.30
2023-05-10T07:15:41.433Z,5.50
2023-05-10T07:16:41.383Z,5.20
2023-05-10T07:17:43.254Z,5.60
2023-05-10T07:18:41.291Z,5.90
2023-05-10T07:19:41.260Z,5.30
2023-05-10T07:20:41.152Z,5.30
2023-05-10T07:21:41.075Z,5.50
2023-05-10T07:22:41.006Z,5.40
2023-05-10T07:23:42.477Z,5.30
2023-05-10T07:24:40.851Z,5.10
2023-05-10T07:25:40.852Z,5.20
2023-05-10T07:26:40.765Z,7.30
2023-05-10T07:27:40.700Z,5.20
2023-05-10T07:28:40.612Z,5.90
2023-05-10T07:29:40.559Z,5.90
2023-05-10T07:30:40.482Z,5.80
2023-05-10T07:31:40.464Z,6.20
2023-05-10T07:32:40.509Z,4.80
2023-05-10T07:33:40.336Z,5.70
2023-05-10T07:34:40.260Z,5.90
2023-05-10T07:35:40.309Z,5.90
2023-05-10T07:36:40.136Z,6.50
2023-05-10T07:37:40.163Z,6.10
2023-05-10T07:38:41.003Z,6.00
2023-05-10T07:39:39.918Z,5.70
2023-05-10T07:40:39.879Z,5.50
2023-05-10T07:41:39.787Z,6.20
2023-05-10T07:42:40.429Z,5.50
2023-05-10T07:43:39.693Z,5.40
2023-05-10T07:44:39.577Z,5.60
2023-05-10T07:45:39.600Z,5.40
2023-05-10T07:46:39.514Z,5.50
2023-05-10T07:47:39.505Z,5.30
2023-05-10T07:48:39.358Z,6.10
2023-05-10T07:49:39.321Z,7.50
2023-05-10T07:50:39.202Z,8.90
2023-05-10T07:51:39.326Z,5.30
2023-05-10T07:52:39.109Z,5.00
2023-05-10T07:53:39.082Z,5.10
2023-05-10T07:54:38.983Z,5.00
2023-05-10T07:55:38.938Z,5.10
2023-05-10T07:56:39.560Z,4.70
2023-05-10T07:57:38.830Z,5.10
2023-05-10T07:58:38.756Z,5.40
2023-05-10T07:59:38.755Z,5.60
2023-05-10T08:00:38.641Z,5.10
2023-05-10T08:01:38.533Z,4.90
2023-05-10T08:02:38.611Z,4.80
2023-05-10T08:03:38.532Z,5.40
2023-05-10T08:04:39.265Z,6.10
2023-05-10T08:05:38.346Z,5.10
2023-05-10T08:06:38.294Z,5.20
2023-05-10T08:07:38.224Z,5.60
2023-05-10T08:08:38.104Z,5.20
2023-05-10T08:09:38.181Z,5.20
2023-05-10T08:10:38.032Z,4.90
2023-05-10T08:11:37.929Z,5.40
2023-05-10T08:12:37.904Z,4.70
2023-05-10T08:13:38.602Z,4.80
2023-05-10T08:14:38.627Z,5.10
2023-05-10T08:15:37.746Z,5.40
2023-05-10T08:16:37.688Z,5.30
2023-05-10T08:17:37.709Z,4.90
2023-05-10T08:18:37.581Z,6.70
2023-05-10T08:19:39.045Z,5.40
2023-05-10T08:20:37.439Z,5.20
2023-05-10T08:21:37.338Z,5.20
2023-05-10T08:22:37.240Z,5.70
2023-05-10T08:23:37.217Z,5.20
2023-05-10T08:24:37.169Z,5.60
2023-05-10T08:25:37.079Z,5.40
2023-05-10T08:26:37.609Z,5.70
2023-05-10T08:27:36.908Z,6.10
2023-05-10T08:28:36.893Z,6.80
2023-05-10T08:29:48.855Z,6.00
2023-05-10T08:30:36.738Z,6.00
2023-05-10T08:31:36.754Z,6.10
2023-05-10T08:32:36.667Z,5.90
2023-05-10T08:33:36.515Z,7.30
2023-05-10T08:34:36.506Z,5.50
2023-05-10T08:35:36.496Z,6.00
2023-05-10T08:36:36.452Z,5.60
2023-05-10T08:37:36.298Z,7.00
2023-05-10T08:38:36.266Z,6.90
2023-05-10T08:39:36.896Z,7.00
2023-05-10T08:40:36.148Z,10.70
2023-05-10T08:41:36.140Z,6.70
2023-05-10T08:42:35.998Z,7.60
2023-05-10T08:43:35.916Z,6.40
2023-05-10T08:44:35.887Z,8.20
2023-05-10T08:45:35.824Z,6.80
2023-05-10T08:46:36.642Z,6.80
2023-05-10T08:47:35.730Z,7.90
2023-05-10T08:48:35.689Z,7.60
2023-05-10T08:49:35.689Z,7.30
2023-05-10T08:50:35.569Z,7.40
2023-05-10T08:51:35.431Z,7.00
2023-05-10T08:52:35.381Z,6.70
2023-05-10T08:53:35.374Z,7.60
2023-05-10T08:54:35.386Z,7.00
2023-05-10T08:55:35.220Z,7.10
2023-05-10T08:56:35.098Z,6.90
2023-05-10T08:57:35.082Z,6.90
2023-05-10T08:58:34.998Z,10.60
2023-05-10T08:59:35.897Z,7.20
2023-05-10T09:00:34.961Z,6.30
2023-05-10T09:01:34.785Z,7.10
2023-05-10T09:02:34.768Z,7.80
2023-05-10T09:03:34.724Z,7.30
2023-05-10T09:04:34.688Z,7.90
2023-05-10T09:05:34.545Z,6.70
2023-05-10T09:06:34.507Z,7.40
2023-05-10T09:07:35.286Z,7.00
2023-05-10T09:08:34.398Z,6.60
2023-05-10T09:09:34.321Z,7.40
2023-05-10T09:10:35.061Z,7.40
2023-05-10T09:11:34.226Z,7.80
2023-05-10T09:12:34.308Z,7.70
2023-05-10T09:13:34.129Z,7.00
2023-05-10T09:14:34.036Z,7.20
2023-05-10T09:15:34.895Z,7.40
2023-05-10T09:16:35.401Z,15.80
2023-05-10T09:17:33.887Z,7.30
2023-05-10T09:18:33.813Z,10.70
2023-05-10T09:19:33.706Z,7.00
2023-05-10T09:20:33.653Z,8.20
2023-05-10T09:21:33.575Z,13.40
2023-05-10T09:22:33.497Z,7.80
2023-05-10T09:23:33.538Z,8.60
2023-05-10T09:24:33.459Z,8.40
2023-05-10T09:25:33.344Z,7.60
2023-05-10T09:26:33.247Z,9.60
2023-05-10T09:27:33.240Z,15.80
2023-05-10T09:28:33.159Z,8.40
2023-05-10T09:29:33.188Z,8.20
2023-05-10T09:30:33.636Z,8.50
2023-05-10T09:31:33.005Z,12.00
2023-05-10T09:32:32.934Z,15.10
2023-05-10T09:33:32.875Z,8.50
2023-05-10T09:34:33.410Z,10.60
2023-05-10T09:35:32.778Z,8.80
2023-05-10T09:36:32.685Z,8.80
2023-05-10T09:37:32.602Z,7.80
2023-05-10T09:38:32.575Z,9.10
2023-05-10T09:39:32.508Z,8.60
2023-05-10T09:40:32.463Z,8.70
2023-05-10T09:41:32.384Z,8.40
2023-05-10T09:42:32.396Z,8.70
2023-05-10T09:43:32.286Z,8.80
2023-05-10T09:44:32.140Z,8.00
2023-05-10T09:45:32.148Z,8.00
2023-05-10T09:46:32.103Z,7.80
2023-05-10T09:47:32.805Z,7.90
2023-05-10T09:48:32.614Z,7.30
2023-05-10T09:49:31.883Z,7.70
2023-05-10T09:50:31.825Z,7.50
2023-05-10T09:51:31.947Z,7.10
2023-05-10T09:52:32.024Z,7.80
2023-05-10T09:53:31.591Z,6.80
2023-05-10T09:54:31.545Z,7.80
2023-05-10T09:55:31.519Z,7.00
2023-05-10T09:56:31.433Z,7.90
2023-05-10T09:57:32.905Z,8.10
2023-05-10T09:58:31.305Z,8.30
2023-05-10T09:59:31.270Z,7.80
2023-05-10T10:00:31.300Z,7.70
2023-05-10T10:01:31.157Z,7.70
2023-05-10T10:02:31.141Z,7.80
2023-05-10T10:03:31.078Z,7.00
2023-05-10T10:04:31.066Z,7.40
2023-05-10T10:05:30.918Z,7.40
2023-05-10T10:06:30.925Z,7.80
2023-05-10T10:07:30.822Z,7.50
2023-05-10T10:08:30.703Z,7.40
2023-05-10T10:09:30.826Z,7.90
2023-05-10T10:10:30.553Z,7.70
2023-05-10T10:11:30.556Z,8.40
2023-05-10T10:12:30.885Z,7.70
2023-05-10T10:13:30.405Z,8.50
2023-05-10T10:14:30.402Z,8.20
2023-05-10T10:15:30.324Z,7.90
2023-05-10T10:16:30.343Z,8.30
2023-05-10T10:17:30.233Z,7.80
2023-05-10T10:18:30.635Z,8.20
2023-05-10T10:19:31.766Z,8.00
2023-05-10T10:20:31.778Z,7.30
2023-05-10T10:21:33.588Z,7.50
2023-05-10T10:22:31.319Z,8.20
2023-05-10T10:23:32.093Z,8.40
2023-05-10T10:24:29.724Z,8.70
2023-05-10T10:25:29.709Z,8.20
2023-05-10T10:26:29.622Z,8.90
2023-05-10T10:27:29.584Z,8.90
2023-05-10T10:28:29.484Z,8.60
2023-05-10T10:29:29.425Z,8.80
2023-05-10T10:30:30.064Z,9.10
2023-05-10T10:31:29.301Z,8.70
2023-05-10T10:32:29.372Z,11.50
2023-05-10T10:33:29.402Z,10.10
2023-05-10T10:34:29.134Z,8.80
2023-05-10T10:35:29.056Z,9.10
2023-05-10T10:36:29.075Z,8.80
2023-05-10T10:37:29.006Z,8.70
2023-05-10T10:38:28.857Z,10.20
2023-05-10T10:39:29.556Z,9.60
2023-05-10T10:40:28.771Z,8.40
2023-05-10T10:41:28.706Z,9.00
2023-05-10T10:42:29.385Z,9.20
2023-05-10T10:43:28.615Z,9.10
2023-05-10T10:44:28.482Z,9.30
2023-05-10T10:45:29.361Z,9.70
2023-05-10T10:46:28.370Z,9.20
2023-05-10T10:47:28.365Z,10.30
2023-05-10T10:48:28.239Z,9.40
2023-05-10T10:49:28.256Z,10.20
2023-05-10T10:50:28.116Z,8.70
2023-05-10T10:51:28.087Z,9.00
2023-05-10T10:52:29.609Z,8.90
2023-05-10T10:53:28.015Z,8.60
2023-05-10T10:54:27.853Z,10.00
2023-05-10T10:55:27.811Z,9.40
2023-05-10T10:56:27.726Z,9.30
2023-05-10T10:57:27.798Z,9.00
2023-05-10T10:58:27.657Z,10.00
2023-05-10T10:59:27.606Z,8.80
2023-05-10T11:00:27.509Z,8.80
2023-05-10T11:01:31.661Z,9.20
2023-05-10T11:02:27.975Z,9.40
2023-05-10T11:03:27.287Z,9.10
2023-05-10T11:04:27.364Z,11.40
2023-05-10T11:05:27.194Z,10.00
2023-05-10T11:06:27.222Z,10.00
2023-05-10T11:07:27.135Z,10.20
2023-05-10T11:08:27.029Z,10.00
2023-05-10T11:09:26.985Z,9.40
2023-05-10T11:10:26.924Z,9.80
2023-05-10T11:11:26.822Z,9.70
2023-05-10T11:12:27.024Z,9.70
2023-05-10T11:13:26.681Z,10.00
2023-05-10T11:14:26.858Z,11.10
2023-05-10T11:15:26.572Z,10.30
2023-05-10T11:16:26.701Z,9.60
2023-05-10T11:17:26.569Z,9.60
2023-05-10T11:18:26.540Z,10.30
2023-05-10T11:19:26.325Z,9.70
2023-05-10T11:20:26.268Z,8.70
2023-05-10T11:21:26.241Z,9.30
2023-05-10T11:22:26.162Z,9.20
2023-05-10T11:23:26.158Z,8.80
2023-05-10T11:24:26.299Z,9.90
2023-05-10T11:25:25.951Z,8.80
2023-05-10T11:26:25.938Z,9.30
2023-05-10T11:27:25.826Z,9.40
2023-05-10T11:28:25.796Z,9.50
2023-05-10T11:29:26.383Z,9.70
2023-05-10T11:30:25.706Z,10.40
2023-05-10T11:31:27.251Z,9.60
2023-05-10T11:32:25.594Z,9.00
2023-05-10T11:33:25.547Z,10.60
2023-05-10T11:34:25.509Z,10.00
2023-05-10T11:35:25.417Z,9.20
2023-05-10T11:36:25.920Z,11.60
2023-05-10T11:37:25.257Z,9.70
2023-05-10T11:38:25.257Z,16.60
2023-05-10T11:39:25.139Z,9.20
2023-05-10T11:40:25.124Z,10.20
2023-05-10T11:41:25.147Z,10.50
2023-05-10T11:42:25.066Z,10.30
2023-05-10T11:43:24.896Z,9.60
2023-05-10T11:44:24.851Z,9.20
2023-05-10T11:45:26.580Z,10.00
2023-05-10T11:46:24.787Z,9.70
2023-05-10T11:47:24.660Z,10.20
2023-05-10T11:48:24.548Z,10.80
2023-05-10T11:49:24.606Z,10.30
2023-05-10T11:50:24.470Z,10.20
2023-05-10T11:51:24.441Z,9.60
2023-05-10T11:52:24.387Z,25.90
2023-05-10T11:53:25.877Z,13.80
2023-05-10T11:54:24.232Z,11.20
2023-05-10T11:55:24.319Z,11.40
2023-05-10T11:56:24.898Z,10.40
2023-05-10T11:57:24.024Z,10.30
2023-05-10T11:58:24.015Z,10.80
2023-05-10T11:59:23.934Z,11.90
2023-05-10T12:00:23.906Z,11.80
2023-05-10T12:01:23.746Z,10.40
2023-05-10T12:02:24.589Z,10.30
2023-05-10T12:03:25.227Z,11.10
2023-05-10T12:04:24.644Z,11.60
2023-05-10T12:05:25.098Z,10.90
2023-05-10T12:06:23.505Z,12.30
2023-05-10T12:07:23.406Z,10.60
2023-05-10T12:08:23.380Z,10.80
2023-05-10T12:10:23.251Z,10.50
2023-05-10T12:11:23.146Z,11.00
2023-05-10T12:12:23.111Z,9.80
2023-05-10T12:13:23.019Z,11.20
2023-05-10T12:14:23.029Z,11.50
2023-05-10T12:15:23.610Z,10.40
2023-05-10T12:16:22.989Z,11.00
2023-05-10T12:17:22.826Z,10.40
2023-05-10T12:18:22.821Z,10.60
2023-05-10T12:19:23.222Z,11.20
2023-05-10T12:20:22.595Z,10.50
2023-05-10T12:21:22.566Z,37.10
2023-05-10T12:22:22.496Z,10.50
2023-05-10T12:23:22.445Z,11.80
2023-05-10T12:24:22.441Z,10.80
2023-05-10T12:25:22.305Z,10.60
2023-05-10T12:26:22.251Z,10.40
2023-05-10T12:27:22.176Z,11.20
2023-05-10T12:28:22.160Z,22.80
2023-05-10T12:29:22.092Z,17.00
2023-05-10T12:30:21.965Z,11.00
2023-05-10T12:31:22.516Z,10.40
2023-05-10T12:32:21.925Z,11.00
2023-05-10T12:33:21.812Z,10.00
2023-05-10T12:34:21.796Z,13.60
2023-05-10T12:35:23.064Z,11.30
2023-05-10T12:36:21.696Z,10.70
2023-05-10T12:37:21.715Z,10.60
2023-05-10T12:38:21.533Z,15.80
2023-05-10T12:39:21.528Z,11.90
2023-05-10T12:40:22.255Z,10.70
2023-05-10T12:41:21.360Z,11.40
2023-05-10T12:42:39.422Z,12.60
2023-05-10T12:43:26.751Z,10.90
2023-05-10T12:44:27.580Z,10.50
2023-05-10T12:45:21.797Z,11.30
2023-05-10T12:46:21.084Z,20.00
2023-05-10T12:47:21.640Z,11.10
2023-05-10T12:48:21.956Z,10.90
2023-05-10T12:49:21.109Z,10.60
2023-05-10T12:50:21.672Z,11.30
2023-05-10T12:51:20.892Z,11.90
2023-05-10T12:52:20.898Z,15.40
2023-05-10T12:53:20.687Z,16.50
2023-05-10T12:54:20.672Z,21.60
2023-05-10T12:55:20.474Z,34.00
2023-05-10T12:56:20.573Z,80.20
2023-05-10T12:57:20.398Z,55.50
2023-05-10T12:58:34.376Z,62.20
2023-05-10T12:59:20.731Z,56.30
2023-05-10T13:00:21.111Z,55.50
2023-05-10T13:01:20.145Z,54.30
2023-05-10T13:02:21.118Z,68.20
2023-05-10T13:03:20.004Z,50.10
2023-05-10T13:04:20.625Z,56.20